sensor_id;sensor_type;location;lat;lon;timestamp;P1;durP1;ratioP1;P2;durP2;ratioP2
48809;SDS011;40070;47.322;18.784;2023-07-30T00:00:37;3.13;;;1.33;;
48809;SDS011;40070;47.322;18.784;2023-07-30T00:02:34;3.47;;;1.14;;
48809;SDS011;40070;47.322;18.784;2023-07-30T00:04:35;3.51;;;1.15;;
48809;SDS011;40070;47.322;18.784;2023-07-30T00:06:36;5.60;;;1.63;;
48809;SDS011;40070;47.322;18.784;2023-07-30T00:08:37;2.72;;;1.33;;
48809;SDS011;40070;47.322;18.784;2023-07-30T00:10:38;4.05;;;1.53;;
48809;SDS011;40070;47.322;18.784;2023-07-30T00:12:40;2.94;;;1.44;;
48809;SDS011;40070;47.322;18.784;2023-07-30T00:14:41;4.05;;;1.44;;
48809;SDS011;40070;47.322;18.784;2023-07-30T00:16:42;2.92;;;1.24;;
48809;SDS011;40070;47.322;18.784;2023-07-30T00:18:43;3.50;;;1.35;;
48809;SDS011;40070;47.322;18.784;2023-07-30T00:20:44;3.71;;;1.44;;
48809;SDS011;40070;47.322;18.784;2023-07-30T00:22:45;2.41;;;1.24;;
48809;SDS011;40070;47.322;18.784;2023-07-30T00:24:46;2.48;;;1.24;;
48809;SDS011;40070;47.322;18.784;2023-07-30T00:26:47;5.79;;;1.52;;
48809;SDS011;40070;47.322;18.784;2023-07-30T00:28:48;4.06;;;1.53;;
48809;SDS011;40070;47.322;18.784;2023-07-30T00:30:49;2.44;;;1.25;;
48809;SDS011;40070;47.322;18.784;2023-07-30T00:32:50;3.83;;;1.54;;
48809;SDS011;40070;47.322;18.784;2023-07-30T00:34:51;2.33;;;1.15;;
48809;SDS011;40070;47.322;18.784;2023-07-30T00:36:52;2.56;;;0.95;;
48809;SDS011;40070;47.322;18.784;2023-07-30T00:38:53;2.74;;;1.15;;
48809;SDS011;40070;47.322;18.784;2023-07-30T00:40:54;2.48;;;1.05;;
48809;SDS011;40070;47.322;18.784;2023-07-30T00:42:55;2.41;;;1.34;;
48809;SDS011;40070;47.322;18.784;2023-07-30T00:44:56;3.04;;;1.25;;
48809;SDS011;40070;47.322;18.784;2023-07-30T00:46:57;4.00;;;1.44;;
48809;SDS011;40070;47.322;18.784;2023-07-30T00:48:58;2.52;;;1.15;;
48809;SDS011;40070;47.322;18.784;2023-07-30T00:50:59;3.38;;;1.34;;
48809;SDS011;40070;47.322;18.784;2023-07-30T00:53:01;2.78;;;1.35;;
48809;SDS011;40070;47.322;18.784;2023-07-30T00:55:02;2.97;;;1.44;;
48809;SDS011;40070;47.322;18.784;2023-07-30T00:57:03;3.86;;;1.25;;
48809;SDS011;40070;47.322;18.784;2023-07-30T00:59:04;2.71;;;1.16;;
48809;SDS011;40070;47.322;18.784;2023-07-30T01:01:05;2.73;;;1.06;;
48809;SDS011;40070;47.322;18.784;2023-07-30T01:03:09;2.47;;;1.06;;
48809;SDS011;40070;47.322;18.784;2023-07-30T01:05:10;2.56;;;1.26;;
48809;SDS011;40070;47.322;18.784;2023-07-30T01:07:11;2.47;;;0.97;;
48809;SDS011;40070;47.322;18.784;2023-07-30T01:09:12;2.73;;;1.16;;
48809;SDS011;40070;47.322;18.784;2023-07-30T01:11:14;2.75;;;0.97;;
48809;SDS011;40070;47.322;18.784;2023-07-30T01:13:15;3.03;;;1.46;;
48809;SDS011;40070;47.322;18.784;2023-07-30T01:15:16;2.57;;;1.07;;
48809;SDS011;40070;47.322;18.784;2023-07-30T01:17:17;1.96;;;0.97;;
48809;SDS011;40070;47.322;18.784;2023-07-30T01:19:18;2.31;;;1.07;;
48809;SDS011;40070;47.322;18.784;2023-07-30T01:21:19;2.31;;;0.97;;
48809;SDS011;40070;47.322;18.784;2023-07-30T01:23:20;2.67;;;1.17;;
48809;SDS011;40070;47.322;18.784;2023-07-30T01:25:22;2.22;;;1.07;;
48809;SDS011;40070;47.322;18.784;2023-07-30T01:27:39;2.39;;;0.97;;
48809;SDS011;40070;47.322;18.784;2023-07-30T01:30:03;2.40;;;0.97;;
48809;SDS011;40070;47.322;18.784;2023-07-30T01:31:45;2.30;;;0.97;;
48809;SDS011;40070;47.322;18.784;2023-07-30T01:33:46;2.48;;;1.16;;
48809;SDS011;40070;47.322;18.784;2023-07-30T01:35:49;3.28;;;1.26;;
48809;SDS011;40070;47.322;18.784;2023-07-30T01:37:50;2.39;;;1.07;;
48809;SDS011;40070;47.322;18.784;2023-07-30T01:39:51;3.47;;;1.26;;
48809;SDS011;40070;47.322;18.784;2023-07-30T01:41:53;2.84;;;1.16;;
48809;SDS011;40070;47.322;18.784;2023-07-30T01:43:53;1.95;;;0.87;;
48809;SDS011;40070;47.322;18.784;2023-07-30T01:45:54;2.92;;;1.16;;
48809;SDS011;40070;47.322;18.784;2023-07-30T01:47:55;2.22;;;0.87;;
48809;SDS011;40070;47.322;18.784;2023-07-30T01:49:56;1.95;;;0.87;;
48809;SDS011;40070;47.322;18.784;2023-07-30T01:51:57;2.65;;;1.06;;
48809;SDS011;40070;47.322;18.784;2023-07-30T01:53:58;2.56;;;1.06;;
48809;SDS011;40070;47.322;18.784;2023-07-30T01:55:59;1.85;;;0.87;;
48809;SDS011;40070;47.322;18.784;2023-07-30T01:58:00;3.35;;;1.06;;
48809;SDS011;40070;47.322;18.784;2023-07-30T02:00:01;2.20;;;1.06;;
48809;SDS011;40070;47.322;18.784;2023-07-30T02:02:02;3.96;;;0.97;;
48809;SDS011;40070;47.322;18.784;2023-07-30T02:04:03;2.30;;;1.06;;
48809;SDS011;40070;47.322;18.784;2023-07-30T02:06:04;2.55;;;1.06;;
48809;SDS011;40070;47.322;18.784;2023-07-30T02:08:05;2.56;;;1.16;;
48809;SDS011;40070;47.322;18.784;2023-07-30T02:10:06;2.55;;;1.35;;
48809;SDS011;40070;47.322;18.784;2023-07-30T02:12:07;2.02;;;0.77;;
48809;SDS011;40070;47.322;18.784;2023-07-30T02:14:09;3.58;;;1.06;;
48809;SDS011;40070;47.322;18.784;2023-07-30T02:16:12;2.80;;;0.96;;
48809;SDS011;40070;47.322;18.784;2023-07-30T02:18:13;2.56;;;0.97;;
48809;SDS011;40070;47.322;18.784;2023-07-30T02:20:14;3.37;;;1.55;;
48809;SDS011;40070;47.322;18.784;2023-07-30T02:22:15;3.29;;;1.26;;
48809;SDS011;40070;47.322;18.784;2023-07-30T02:24:16;2.73;;;1.06;;
48809;SDS011;40070;47.322;18.784;2023-07-30T02:26:17;2.55;;;1.06;;
48809;SDS011;40070;47.322;18.784;2023-07-30T02:28:18;3.06;;;1.25;;
48809;SDS011;40070;47.322;18.784;2023-07-30T02:30:19;2.09;;;0.87;;
48809;SDS011;40070;47.322;18.784;2023-07-30T02:32:20;2.45;;;0.96;;
48809;SDS011;40070;47.322;18.784;2023-07-30T02:34:21;2.19;;;1.06;;
48809;SDS011;40070;47.322;18.784;2023-07-30T02:36:22;1.67;;;0.77;;
48809;SDS011;40070;47.322;18.784;2023-07-30T02:38:23;4.73;;;1.16;;
48809;SDS011;40070;47.322;18.784;2023-07-30T02:40:24;2.26;;;0.96;;
48809;SDS011;40070;47.322;18.784;2023-07-30T02:42:25;2.09;;;0.96;;
48809;SDS011;40070;47.322;18.784;2023-07-30T02:44:26;1.99;;;1.06;;
48809;SDS011;40070;47.322;18.784;2023-07-30T02:46:27;2.93;;;1.15;;
48809;SDS011;40070;47.322;18.784;2023-07-30T02:48:28;2.33;;;0.96;;
48809;SDS011;40070;47.322;18.784;2023-07-30T02:50:29;2.43;;;1.15;;
48809;SDS011;40070;47.322;18.784;2023-07-30T02:52:30;2.43;;;1.25;;
48809;SDS011;40070;47.322;18.784;2023-07-30T02:54:35;1.82;;;0.96;;
48809;SDS011;40070;47.322;18.784;2023-07-30T02:56:35;2.35;;;1.06;;
48809;SDS011;40070;47.322;18.784;2023-07-30T02:58:36;2.78;;;1.15;;
48809;SDS011;40070;47.322;18.784;2023-07-30T03:00:40;2.00;;;0.96;;
48809;SDS011;40070;47.322;18.784;2023-07-30T03:02:41;2.79;;;1.25;;
48809;SDS011;40070;47.322;18.784;2023-07-30T03:04:42;2.52;;;1.15;;
48809;SDS011;40070;47.322;18.784;2023-07-30T03:06:43;2.34;;;0.96;;
48809;SDS011;40070;47.322;18.784;2023-07-30T03:08:44;2.16;;;0.96;;
48809;SDS011;40070;47.322;18.784;2023-07-30T03:10:45;3.03;;;1.05;;
48809;SDS011;40070;47.322;18.784;2023-07-30T03:12:46;4.60;;;1.25;;
48809;SDS011;40070;47.322;18.784;2023-07-30T03:14:47;2.51;;;1.25;;
48809;SDS011;40070;47.322;18.784;2023-07-30T03:16:48;2.18;;;0.96;;
48809;SDS011;40070;47.322;18.784;2023-07-30T03:18:49;2.00;;;0.96;;
48809;SDS011;40070;47.322;18.784;2023-07-30T03:20:50;2.01;;;0.96;;
48809;SDS011;40070;47.322;18.784;2023-07-30T03:22:51;3.67;;;1.45;;
48809;SDS011;40070;47.322;18.784;2023-07-30T03:24:52;2.46;;;0.97;;
48809;SDS011;40070;47.322;18.784;2023-07-30T03:26:53;2.99;;;1.35;;
48809;SDS011;40070;47.322;18.784;2023-07-30T03:28:54;2.82;;;1.16;;
48809;SDS011;40070;47.322;18.784;2023-07-30T03:30:55;2.47;;;1.26;;
48809;SDS011;40070;47.322;18.784;2023-07-30T03:32:56;2.19;;;1.06;;
48809;SDS011;40070;47.322;18.784;2023-07-30T03:34:57;3.00;;;1.16;;
48809;SDS011;40070;47.322;18.784;2023-07-30T03:36:58;3.98;;;1.26;;
48809;SDS011;40070;47.322;18.784;2023-07-30T03:38:59;2.23;;;0.97;;
48809;SDS011;40070;47.322;18.784;2023-07-30T03:41:00;2.30;;;1.07;;
48809;SDS011;40070;47.322;18.784;2023-07-30T03:43:01;2.39;;;1.07;;
48809;SDS011;40070;47.322;18.784;2023-07-30T03:45:02;2.57;;;1.16;;
48809;SDS011;40070;47.322;18.784;2023-07-30T03:47:03;2.41;;;1.07;;
48809;SDS011;40070;47.322;18.784;2023-07-30T03:49:04;2.77;;;1.07;;
48809;SDS011;40070;47.322;18.784;2023-07-30T03:51:05;2.96;;;1.27;;
48809;SDS011;40070;47.322;18.784;2023-07-30T03:53:06;2.67;;;1.16;;
48809;SDS011;40070;47.322;18.784;2023-07-30T03:55:07;4.97;;;1.07;;
48809;SDS011;40070;47.322;18.784;2023-07-30T03:57:08;2.92;;;1.16;;
48809;SDS011;40070;47.322;18.784;2023-07-30T03:59:09;2.83;;;1.16;;
48809;SDS011;40070;47.322;18.784;2023-07-30T04:01:10;2.32;;;0.97;;
48809;SDS011;40070;47.322;18.784;2023-07-30T04:03:11;3.46;;;1.36;;
48809;SDS011;40070;47.322;18.784;2023-07-30T04:05:12;2.59;;;0.88;;
48809;SDS011;40070;47.322;18.784;2023-07-30T04:07:13;2.78;;;1.17;;
48809;SDS011;40070;47.322;18.784;2023-07-30T04:09:14;2.69;;;1.27;;
48809;SDS011;40070;47.322;18.784;2023-07-30T04:11:15;2.98;;;0.98;;
48809;SDS011;40070;47.322;18.784;2023-07-30T04:13:16;3.04;;;1.36;;
48809;SDS011;40070;47.322;18.784;2023-07-30T04:15:17;3.21;;;1.17;;
48809;SDS011;40070;47.322;18.784;2023-07-30T04:17:18;2.39;;;0.97;;
48809;SDS011;40070;47.322;18.784;2023-07-30T04:19:19;2.57;;;1.07;;
48809;SDS011;40070;47.322;18.784;2023-07-30T04:21:20;2.48;;;0.97;;
48809;SDS011;40070;47.322;18.784;2023-07-30T04:23:21;2.38;;;1.16;;
48809;SDS011;40070;47.322;18.784;2023-07-30T04:25:22;3.01;;;1.26;;
48809;SDS011;40070;47.322;18.784;2023-07-30T04:27:23;3.20;;;1.07;;
48809;SDS011;40070;47.322;18.784;2023-07-30T04:29:24;3.73;;;1.26;;
48809;SDS011;40070;47.322;18.784;2023-07-30T04:31:25;2.94;;;1.16;;
48809;SDS011;40070;47.322;18.784;2023-07-30T04:33:26;4.52;;;1.16;;
48809;SDS011;40070;47.322;18.784;2023-07-30T04:35:27;2.92;;;1.16;;
48809;SDS011;40070;47.322;18.784;2023-07-30T04:37:28;2.57;;;1.07;;
48809;SDS011;40070;47.322;18.784;2023-07-30T04:39:29;3.21;;;1.07;;
48809;SDS011;40070;47.322;18.784;2023-07-30T04:41:31;3.15;;;1.07;;
48809;SDS011;40070;47.322;18.784;2023-07-30T04:43:32;4.38;;;1.07;;
48809;SDS011;40070;47.322;18.784;2023-07-30T04:45:33;2.59;;;1.17;;
48809;SDS011;40070;47.322;18.784;2023-07-30T04:47:34;4.29;;;1.26;;
48809;SDS011;40070;47.322;18.784;2023-07-30T04:49:35;4.00;;;1.75;;
48809;SDS011;40070;47.322;18.784;2023-07-30T04:51:36;3.70;;;1.26;;
48809;SDS011;40070;47.322;18.784;2023-07-30T04:53:37;2.83;;;1.26;;
48809;SDS011;40070;47.322;18.784;2023-07-30T04:55:38;2.21;;;1.06;;
48809;SDS011;40070;47.322;18.784;2023-07-30T04:57:39;1.94;;;0.97;;
48809;SDS011;40070;47.322;18.784;2023-07-30T04:59:40;2.04;;;0.97;;
48809;SDS011;40070;47.322;18.784;2023-07-30T05:01:41;3.27;;;1.45;;
48809;SDS011;40070;47.322;18.784;2023-07-30T05:03:42;2.28;;;1.06;;
48809;SDS011;40070;47.322;18.784;2023-07-30T05:05:43;2.41;;;1.17;;
48809;SDS011;40070;47.322;18.784;2023-07-30T05:07:44;3.41;;;1.36;;
48809;SDS011;40070;47.322;18.784;2023-07-30T05:09:45;2.15;;;1.07;;
48809;SDS011;40070;47.322;18.784;2023-07-30T05:11:46;3.12;;;1.17;;
48809;SDS011;40070;47.322;18.784;2023-07-30T05:13:47;2.52;;;0.98;;
48809;SDS011;40070;47.322;18.784;2023-07-30T05:15:48;4.16;;;1.37;;
48809;SDS011;40070;47.322;18.784;2023-07-30T05:17:49;2.62;;;1.27;;
48809;SDS011;40070;47.322;18.784;2023-07-30T05:19:50;3.06;;;1.17;;
48809;SDS011;40070;47.322;18.784;2023-07-30T05:21:51;4.06;;;1.17;;
48809;SDS011;40070;47.322;18.784;2023-07-30T05:23:52;2.28;;;1.08;;
48809;SDS011;40070;47.322;18.784;2023-07-30T05:25:53;4.24;;;1.85;;
48809;SDS011;40070;47.322;18.784;2023-07-30T05:27:54;2.90;;;1.37;;
48809;SDS011;40070;47.322;18.784;2023-07-30T05:29:55;2.82;;;1.27;;
48809;SDS011;40070;47.322;18.784;2023-07-30T05:31:56;2.52;;;1.07;;
48809;SDS011;40070;47.322;18.784;2023-07-30T05:33:57;4.06;;;1.37;;
48809;SDS011;40070;47.322;18.784;2023-07-30T05:35:58;2.60;;;1.17;;
48809;SDS011;40070;47.322;18.784;2023-07-30T05:37:59;2.77;;;1.17;;
48809;SDS011;40070;47.322;18.784;2023-07-30T05:40:00;2.84;;;1.26;;
48809;SDS011;40070;47.322;18.784;2023-07-30T05:42:01;3.49;;;1.07;;
48809;SDS011;40070;47.322;18.784;2023-07-30T05:44:02;3.25;;;1.27;;
48809;SDS011;40070;47.322;18.784;2023-07-30T05:46:04;3.22;;;1.26;;
48809;SDS011;40070;47.322;18.784;2023-07-30T05:48:05;2.41;;;1.17;;
48809;SDS011;40070;47.322;18.784;2023-07-30T05:50:06;2.76;;;1.26;;
48809;SDS011;40070;47.322;18.784;2023-07-30T05:52:07;2.87;;;1.17;;
48809;SDS011;40070;47.322;18.784;2023-07-30T05:54:08;2.69;;;1.27;;
48809;SDS011;40070;47.322;18.784;2023-07-30T05:56:09;2.88;;;1.27;;
48809;SDS011;40070;47.322;18.784;2023-07-30T05:58:10;3.23;;;1.17;;
48809;SDS011;40070;47.322;18.784;2023-07-30T06:00:11;3.31;;;1.26;;
48809;SDS011;40070;47.322;18.784;2023-07-30T06:02:12;3.42;;;1.46;;
48809;SDS011;40070;47.322;18.784;2023-07-30T06:04:13;2.62;;;1.27;;
48809;SDS011;40070;47.322;18.784;2023-07-30T06:06:14;3.18;;;1.27;;
48809;SDS011;40070;47.322;18.784;2023-07-30T06:08:15;3.16;;;1.17;;
48809;SDS011;40070;47.322;18.784;2023-07-30T06:10:16;3.10;;;1.27;;
48809;SDS011;40070;47.322;18.784;2023-07-30T06:12:17;3.41;;;1.47;;
48809;SDS011;40070;47.322;18.784;2023-07-30T06:14:18;3.59;;;1.18;;
48809;SDS011;40070;47.322;18.784;2023-07-30T06:16:19;2.76;;;1.18;;
48809;SDS011;40070;47.322;18.784;2023-07-30T06:18:20;2.57;;;1.18;;
48809;SDS011;40070;47.322;18.784;2023-07-30T06:20:21;2.58;;;1.08;;
48809;SDS011;40070;47.322;18.784;2023-07-30T06:22:22;3.06;;;1.18;;
48809;SDS011;40070;47.322;18.784;2023-07-30T06:24:23;4.65;;;1.38;;
48809;SDS011;40070;47.322;18.784;2023-07-30T06:26:24;2.69;;;1.28;;
48809;SDS011;40070;47.322;18.784;2023-07-30T06:28:25;2.42;;;1.08;;
48809;SDS011;40070;47.322;18.784;2023-07-30T06:30:26;2.88;;;1.28;;
48809;SDS011;40070;47.322;18.784;2023-07-30T06:32:27;3.55;;;1.38;;
48809;SDS011;40070;47.322;18.784;2023-07-30T06:34:28;3.09;;;1.28;;
48809;SDS011;40070;47.322;18.784;2023-07-30T06:36:29;3.10;;;1.09;;
48809;SDS011;40070;47.322;18.784;2023-07-30T06:38:30;3.67;;;1.29;;
48809;SDS011;40070;47.322;18.784;2023-07-30T06:40:31;2.73;;;1.48;;
48809;SDS011;40070;47.322;18.784;2023-07-30T06:42:32;2.91;;;1.19;;
48809;SDS011;40070;47.322;18.784;2023-07-30T06:44:33;3.44;;;1.38;;
48809;SDS011;40070;47.322;18.784;2023-07-30T06:46:34;2.13;;;1.08;;
48809;SDS011;40070;47.322;18.784;2023-07-30T06:48:35;3.36;;;1.28;;
48809;SDS011;40070;47.322;18.784;2023-07-30T06:50:36;2.78;;;1.18;;
48809;SDS011;40070;47.322;18.784;2023-07-30T06:52:37;3.86;;;1.47;;
48809;SDS011;40070;47.322;18.784;2023-07-30T06:54:38;3.21;;;1.67;;
48809;SDS011;40070;47.322;18.784;2023-07-30T06:56:39;3.72;;;1.76;;
48809;SDS011;40070;47.322;18.784;2023-07-30T06:58:41;4.35;;;1.86;;
48809;SDS011;40070;47.322;18.784;2023-07-30T07:00:42;3.51;;;1.56;;
48809;SDS011;40070;47.322;18.784;2023-07-30T07:02:43;3.69;;;1.66;;
48809;SDS011;40070;47.322;18.784;2023-07-30T07:04:44;3.20;;;1.47;;
48809;SDS011;40070;47.322;18.784;2023-07-30T07:06:45;5.02;;;1.47;;
48809;SDS011;40070;47.322;18.784;2023-07-30T07:08:46;3.47;;;1.37;;
48809;SDS011;40070;47.322;18.784;2023-07-30T07:10:47;4.05;;;1.57;;
48809;SDS011;40070;47.322;18.784;2023-07-30T07:12:48;3.13;;;1.18;;
48809;SDS011;40070;47.322;18.784;2023-07-30T07:14:49;2.78;;;1.28;;
48809;SDS011;40070;47.322;18.784;2023-07-30T07:16:51;3.72;;;1.48;;
48809;SDS011;40070;47.322;18.784;2023-07-30T07:18:51;3.54;;;1.58;;
48809;SDS011;40070;47.322;18.784;2023-07-30T07:20:52;3.07;;;1.28;;
48809;SDS011;40070;47.322;18.784;2023-07-30T07:22:53;3.05;;;1.38;;
48809;SDS011;40070;47.322;18.784;2023-07-30T07:24:54;2.96;;;1.48;;
48809;SDS011;40070;47.322;18.784;2023-07-30T07:26:55;4.73;;;1.08;;
48809;SDS011;40070;47.322;18.784;2023-07-30T07:28:56;3.34;;;1.38;;
48809;SDS011;40070;47.322;18.784;2023-07-30T07:30:57;3.35;;;1.38;;
48809;SDS011;40070;47.322;18.784;2023-07-30T07:32:58;2.70;;;1.18;;
48809;SDS011;40070;47.322;18.784;2023-07-30T07:34:59;2.88;;;1.28;;
48809;SDS011;40070;47.322;18.784;2023-07-30T07:37:01;3.07;;;1.28;;
48809;SDS011;40070;47.322;18.784;2023-07-30T07:39:01;2.61;;;1.18;;
48809;SDS011;40070;47.322;18.784;2023-07-30T07:41:06;2.98;;;1.18;;
48809;SDS011;40070;47.322;18.784;2023-07-30T07:43:09;3.25;;;0.89;;
48809;SDS011;40070;47.322;18.784;2023-07-30T07:45:10;3.41;;;1.28;;
48809;SDS011;40070;47.322;18.784;2023-07-30T07:47:12;3.40;;;1.37;;
48809;SDS011;40070;47.322;18.784;2023-07-30T07:49:13;4.48;;;1.37;;
48809;SDS011;40070;47.322;18.784;2023-07-30T07:51:14;3.20;;;1.27;;
48809;SDS011;40070;47.322;18.784;2023-07-30T07:53:15;2.36;;;1.08;;
48809;SDS011;40070;47.322;18.784;2023-07-30T07:55:16;3.16;;;1.27;;
48809;SDS011;40070;47.322;18.784;2023-07-30T07:57:17;2.87;;;1.36;;
48809;SDS011;40070;47.322;18.784;2023-07-30T07:59:18;3.19;;;1.45;;
48809;SDS011;40070;47.322;18.784;2023-07-30T08:01:19;3.43;;;1.26;;
48809;SDS011;40070;47.322;18.784;2023-07-30T08:03:20;2.09;;;0.96;;
48809;SDS011;40070;47.322;18.784;2023-07-30T08:05:21;2.34;;;1.06;;
48809;SDS011;40070;47.322;18.784;2023-07-30T08:07:22;2.67;;;1.24;;
48809;SDS011;40070;47.322;18.784;2023-07-30T08:09:23;3.57;;;1.14;;
48809;SDS011;40070;47.322;18.784;2023-07-30T08:11:24;3.07;;;1.33;;
48809;SDS011;40070;47.322;18.784;2023-07-30T08:13:25;3.48;;;1.52;;
48809;SDS011;40070;47.322;18.784;2023-07-30T08:15:26;2.18;;;1.13;;
48809;SDS011;40070;47.322;18.784;2023-07-30T08:17:27;2.94;;;1.33;;
48809;SDS011;40070;47.322;18.784;2023-07-30T08:19:28;3.96;;;1.33;;
48809;SDS011;40070;47.322;18.784;2023-07-30T08:21:31;4.17;;;1.59;;
48809;SDS011;40070;47.322;18.784;2023-07-30T08:23:31;2.13;;;1.21;;
48809;SDS011;40070;47.322;18.784;2023-07-30T08:25:33;3.32;;;1.69;;
48809;SDS011;40070;47.322;18.784;2023-07-30T08:27:34;4.45;;;1.80;;
48809;SDS011;40070;47.322;18.784;2023-07-30T08:29:35;3.64;;;1.61;;
48809;SDS011;40070;47.322;18.784;2023-07-30T08:31:36;3.47;;;1.99;;
48809;SDS011;40070;47.322;18.784;2023-07-30T08:33:37;3.51;;;1.51;;
48809;SDS011;40070;47.322;18.784;2023-07-30T08:35:39;3.72;;;1.71;;
48809;SDS011;40070;47.322;18.784;2023-07-30T08:37:40;3.78;;;1.70;;
48809;SDS011;40070;47.322;18.784;2023-07-30T08:39:41;3.89;;;1.90;;
48809;SDS011;40070;47.322;18.784;2023-07-30T08:41:42;5.01;;;1.81;;
48809;SDS011;40070;47.322;18.784;2023-07-30T08:43:44;2.89;;;1.43;;
48809;SDS011;40070;47.322;18.784;2023-07-30T08:45:47;3.40;;;1.62;;
48809;SDS011;40070;47.322;18.784;2023-07-30T08:47:48;2.73;;;1.43;;
48809;SDS011;40070;47.322;18.784;2023-07-30T08:49:49;3.29;;;1.52;;
48809;SDS011;40070;47.322;18.784;2023-07-30T08:51:52;3.05;;;1.61;;
48809;SDS011;40070;47.322;18.784;2023-07-30T08:53:51;3.41;;;1.72;;
48809;SDS011;40070;47.322;18.784;2023-07-30T08:55:53;3.20;;;1.63;;
48809;SDS011;40070;47.322;18.784;2023-07-30T08:57:55;3.29;;;1.44;;
48809;SDS011;40070;47.322;18.784;2023-07-30T09:02:01;5.71;;;1.63;;
48809;SDS011;40070;47.322;18.784;2023-07-30T09:04:04;2.76;;;1.25;;
48809;SDS011;40070;47.322;18.784;2023-07-30T09:06:05;3.82;;;1.92;;
48809;SDS011;40070;47.322;18.784;2023-07-30T09:08:06;5.23;;;1.54;;
48809;SDS011;40070;47.322;18.784;2023-07-30T09:10:08;3.36;;;1.61;;
48809;SDS011;40070;47.322;18.784;2023-07-30T09:12:14;3.56;;;1.60;;
48809;SDS011;40070;47.322;18.784;2023-07-30T09:14:10;3.12;;;1.61;;
48809;SDS011;40070;47.322;18.784;2023-07-30T09:16:12;4.88;;;1.51;;
48809;SDS011;40070;47.322;18.784;2023-07-30T09:18:13;3.30;;;1.42;;
48809;SDS011;40070;47.322;18.784;2023-07-30T09:20:14;3.62;;;1.42;;
48809;SDS011;40070;47.322;18.784;2023-07-30T09:22:36;3.32;;;1.52;;
48809;SDS011;40070;47.322;18.784;2023-07-30T09:24:20;3.33;;;1.52;;
48809;SDS011;40070;47.322;18.784;2023-07-30T09:26:19;4.29;;;1.62;;
48809;SDS011;40070;47.322;18.784;2023-07-30T09:28:21;4.54;;;1.81;;
48809;SDS011;40070;47.322;18.784;2023-07-30T09:30:24;3.43;;;1.53;;
48809;SDS011;40070;47.322;18.784;2023-07-30T09:32:29;4.01;;;1.72;;
48809;SDS011;40070;47.322;18.784;2023-07-30T09:34:26;3.91;;;1.71;;
48809;SDS011;40070;47.322;18.784;2023-07-30T09:36:27;4.91;;;1.71;;
48809;SDS011;40070;47.322;18.784;2023-07-30T09:38:32;3.72;;;1.61;;
48809;SDS011;40070;47.322;18.784;2023-07-30T09:40:34;3.04;;;1.52;;
48809;SDS011;40070;47.322;18.784;2023-07-30T09:42:35;3.59;;;1.89;;
48809;SDS011;40070;47.322;18.784;2023-07-30T09:44:36;5.62;;;1.78;;
48809;SDS011;40070;47.322;18.784;2023-07-30T09:46:43;3.31;;;1.59;;
48809;SDS011;40070;47.322;18.784;2023-07-30T09:48:38;3.59;;;1.89;;
48809;SDS011;40070;47.322;18.784;2023-07-30T09:50:39;3.86;;;1.70;;
48809;SDS011;40070;47.322;18.784;2023-07-30T09:52:41;3.53;;;1.72;;
48809;SDS011;40070;47.322;18.784;2023-07-30T09:54:43;3.63;;;1.73;;
48809;SDS011;40070;47.322;18.784;2023-07-30T09:56:44;4.07;;;1.82;;
48809;SDS011;40070;47.322;18.784;2023-07-30T09:58:45;3.49;;;1.62;;
48809;SDS011;40070;47.322;18.784;2023-07-30T10:00:46;3.44;;;1.70;;
48809;SDS011;40070;47.322;18.784;2023-07-30T10:02:49;3.19;;;1.51;;
48809;SDS011;40070;47.322;18.784;2023-07-30T10:04:50;3.12;;;1.61;;
48809;SDS011;40070;47.322;18.784;2023-07-30T10:07:04;3.71;;;1.80;;
48809;SDS011;40070;47.322;18.784;2023-07-30T10:08:54;3.18;;;1.79;;
48809;SDS011;40070;47.322;18.784;2023-07-30T10:10:56;3.34;;;1.41;;
48809;SDS011;40070;47.322;18.784;2023-07-30T10:13:02;3.93;;;1.60;;
48809;SDS011;40070;47.322;18.784;2023-07-30T10:15:01;3.38;;;1.23;;
48809;SDS011;40070;47.322;18.784;2023-07-30T10:17:03;3.78;;;1.53;;
48809;SDS011;40070;47.322;18.784;2023-07-30T10:19:10;3.44;;;1.63;;
48809;SDS011;40070;47.322;18.784;2023-07-30T10:21:22;2.97;;;1.81;;
48809;SDS011;40070;47.322;18.784;2023-07-30T10:23:16;2.82;;;1.43;;
48809;SDS011;40070;47.322;18.784;2023-07-30T10:25:43;3.69;;;1.89;;
48809;SDS011;40070;47.322;18.784;2023-07-30T10:27:38;3.47;;;1.99;;
48809;SDS011;40070;47.322;18.784;2023-07-30T10:29:44;3.83;;;2.19;;
48809;SDS011;40070;47.322;18.784;2023-07-30T10:31:53;4.34;;;2.28;;
48809;SDS011;40070;47.322;18.784;2023-07-30T10:33:51;4.70;;;2.29;;
48809;SDS011;40070;47.322;18.784;2023-07-30T10:36:09;4.41;;;2.18;;
48809;SDS011;40070;47.322;18.784;2023-07-30T10:38:17;4.58;;;2.18;;
48809;SDS011;40070;47.322;18.784;2023-07-30T10:40:19;4.03;;;2.10;;
48809;SDS011;40070;47.322;18.784;2023-07-30T10:42:21;4.01;;;2.00;;
48809;SDS011;40070;47.322;18.784;2023-07-30T10:44:23;3.86;;;1.83;;
48809;SDS011;40070;47.322;18.784;2023-07-30T10:46:23;3.43;;;1.74;;
48809;SDS011;40070;47.322;18.784;2023-07-30T10:48:40;3.04;;;1.63;;
48809;SDS011;40070;47.322;18.784;2023-07-30T10:50:25;3.30;;;1.82;;
48809;SDS011;40070;47.322;18.784;2023-07-30T10:52:27;3.40;;;1.54;;
48809;SDS011;40070;47.322;18.784;2023-07-30T10:54:32;3.80;;;1.84;;
48809;SDS011;40070;47.322;18.784;2023-07-30T10:56:30;4.01;;;1.55;;
48809;SDS011;40070;47.322;18.784;2023-07-30T10:58:31;3.02;;;1.36;;
48809;SDS011;40070;47.322;18.784;2023-07-30T11:00:32;2.74;;;1.35;;
48809;SDS011;40070;47.322;18.784;2023-07-30T11:02:33;2.80;;;1.54;;
48809;SDS011;40070;47.322;18.784;2023-07-30T11:04:37;2.93;;;1.34;;
48809;SDS011;40070;47.322;18.784;2023-07-30T11:06:38;3.17;;;1.35;;
48809;SDS011;40070;47.322;18.784;2023-07-30T11:08:39;3.41;;;1.64;;
48809;SDS011;40070;47.322;18.784;2023-07-30T11:10:49;2.68;;;1.25;;
48809;SDS011;40070;47.322;18.784;2023-07-30T11:12:42;3.98;;;1.54;;
48809;SDS011;40070;47.322;18.784;2023-07-30T11:14:50;3.07;;;1.74;;
48809;SDS011;40070;47.322;18.784;2023-07-30T11:16:58;2.85;;;1.44;;
48809;SDS011;40070;47.322;18.784;2023-07-30T11:18:52;3.07;;;1.54;;
48809;SDS011;40070;47.322;18.784;2023-07-30T11:20:58;2.78;;;1.25;;
48809;SDS011;40070;47.322;18.784;2023-07-30T11:23:22;3.17;;;1.34;;
48809;SDS011;40070;47.322;18.784;2023-07-30T11:25:17;2.96;;;1.35;;
48809;SDS011;40070;47.322;18.784;2023-07-30T11:27:09;3.08;;;1.35;;
48809;SDS011;40070;47.322;18.784;2023-07-30T11:29:19;3.20;;;1.25;;
48809;SDS011;40070;47.322;18.784;2023-07-30T11:31:18;4.05;;;1.72;;
48809;SDS011;40070;47.322;18.784;2023-07-30T11:33:15;2.45;;;1.16;;
48809;SDS011;40070;47.322;18.784;2023-07-30T11:35:14;2.81;;;1.52;;
48809;SDS011;40070;47.322;18.784;2023-07-30T11:37:16;2.74;;;1.34;;
48809;SDS011;40070;47.322;18.784;2023-07-30T11:39:17;2.82;;;1.43;;
48809;SDS011;40070;47.322;18.784;2023-07-30T11:41:18;3.22;;;1.33;;
48809;SDS011;40070;47.322;18.784;2023-07-30T11:43:22;3.12;;;1.44;;
48809;SDS011;40070;47.322;18.784;2023-07-30T11:45:20;2.13;;;1.24;;
48809;SDS011;40070;47.322;18.784;2023-07-30T11:47:24;3.72;;;1.34;;
48809;SDS011;40070;47.322;18.784;2023-07-30T11:49:37;3.08;;;1.43;;
48809;SDS011;40070;47.322;18.784;2023-07-30T11:51:38;3.41;;;1.33;;
48809;SDS011;40070;47.322;18.784;2023-07-30T11:53:49;2.92;;;1.34;;
48809;SDS011;40070;47.322;18.784;2023-07-30T11:55:40;3.33;;;1.45;;
48809;SDS011;40070;47.322;18.784;2023-07-30T11:57:41;2.99;;;1.74;;
48809;SDS011;40070;47.322;18.784;2023-07-30T11:59:42;2.88;;;1.35;;
48809;SDS011;40070;47.322;18.784;2023-07-30T12:01:43;3.63;;;1.53;;